createdAt,value
2022-10-19T00:04:45.427Z,1.55
2022-10-19T00:09:48.173Z,0.88
2022-10-19T00:14:51.009Z,1.10
2022-10-19T00:19:55.113Z,1.00
2022-10-19T00:24:58.278Z,0.80
2022-10-19T00:30:01.407Z,1.25
2022-10-19T00:35:06.234Z,1.00
2022-10-19T00:40:10.489Z,0.93
2022-10-19T00:45:17.311Z,1.30
2022-10-19T00:50:21.906Z,1.40
2022-10-19T00:55:25.491Z,0.95
2022-10-19T01:00:28.733Z,1.65
2022-10-19T01:05:34.882Z,1.25
2022-10-19T01:10:48.131Z,1.65
2022-10-19T01:16:00.576Z,1.00
2022-10-19T01:21:26.103Z,1.05
2022-10-19T01:27:06.366Z,2.10
2022-10-19T01:32:15.399Z,1.20
2022-10-19T01:37:28.223Z,1.15
2022-10-19T01:42:38.548Z,1.27
2022-10-19T01:47:48.427Z,1.10
2022-10-19T01:52:52.755Z,1.13
2022-10-19T01:58:01.419Z,0.93
2022-10-19T02:03:07.970Z,1.25
2022-10-19T02:08:16.637Z,1.38
2022-10-19T02:13:20.939Z,0.80
2022-10-19T02:18:29.204Z,0.93
2022-10-19T02:23:31.998Z,1.33
2022-10-19T02:28:35.666Z,1.15
2022-10-19T02:33:40.189Z,0.90
2022-10-19T02:38:43.417Z,1.02
2022-10-19T02:43:50.504Z,1.10
2022-10-19T02:48:56.183Z,1.00
2022-10-19T02:54:01.281Z,0.75
2022-10-19T02:59:07.007Z,0.98
2022-10-19T03:04:11.164Z,1.00
2022-10-19T03:09:13.942Z,1.00
2022-10-19T03:14:16.708Z,0.85
2022-10-19T03:19:20.817Z,0.98
2022-10-19T03:24:23.682Z,0.80
2022-10-19T03:29:26.685Z,1.00
2022-10-19T03:34:30.991Z,0.80
2022-10-19T03:39:33.756Z,0.90
2022-10-19T03:44:36.524Z,1.00
2022-10-19T03:49:40.709Z,1.00
2022-10-19T03:54:43.593Z,1.00
2022-10-19T03:59:46.332Z,1.10
2022-10-19T04:04:50.506Z,0.90
2022-10-19T04:09:53.290Z,0.90
2022-10-19T04:14:57.663Z,1.00
2022-10-19T04:20:02.156Z,1.00
2022-10-19T04:25:05.924Z,1.20
2022-10-19T04:30:09.517Z,1.33
2022-10-19T04:35:13.873Z,1.10
2022-10-19T04:40:16.655Z,0.90
2022-10-19T04:45:19.479Z,1.08
2022-10-19T04:50:23.753Z,1.20
2022-10-19T04:55:31.718Z,0.93
2022-10-19T05:00:34.666Z,1.13
2022-10-19T05:05:38.927Z,1.40
2022-10-19T05:10:45.442Z,1.25
2022-10-19T05:15:57.037Z,0.98
2022-10-19T05:21:05.781Z,1.15
2022-10-19T05:26:11.355Z,1.45
2022-10-19T05:31:16.914Z,1.77
2022-10-19T05:36:26.028Z,1.20
2022-10-19T05:41:28.901Z,1.73
2022-10-19T05:46:33.243Z,1.48
2022-10-19T05:51:37.346Z,1.63
2022-10-19T05:56:41.814Z,1.10
2022-10-19T06:01:45.082Z,4.70
2022-10-19T06:06:49.234Z,2.03
2022-10-19T06:11:52.032Z,1.60
2022-10-19T06:16:54.822Z,1.33
2022-10-19T06:21:58.968Z,1.50
2022-10-19T06:27:01.716Z,1.63
2022-10-19T06:32:04.697Z,1.75
2022-10-19T06:37:08.804Z,2.00
2022-10-19T06:42:11.724Z,2.40
2022-10-19T06:47:14.770Z,3.03
2022-10-19T06:52:19.215Z,5.18
2022-10-19T06:57:21.961Z,3.38
2022-10-19T07:02:24.852Z,2.17
2022-10-19T07:07:29.021Z,3.30
2022-10-19T07:12:32.191Z,2.65
2022-10-19T07:17:35.139Z,2.75
2022-10-19T07:22:39.533Z,2.90
2022-10-19T07:27:42.490Z,2.88
2022-10-19T07:32:47.128Z,2.67
2022-10-19T07:37:51.365Z,2.45
2022-10-19T07:42:55.038Z,2.08
2022-10-19T07:47:57.893Z,2.15
2022-10-19T07:53:03.452Z,2.08
2022-10-19T07:58:06.163Z,1.52
2022-10-19T08:03:57.104Z,1.60
2022-10-19T08:08:34.148Z,1.45
2022-10-19T08:13:37.009Z,1.70
2022-10-19T08:18:39.711Z,4.50
2022-10-19T08:23:43.880Z,1.50
2022-10-19T08:28:46.973Z,1.58
2022-10-19T08:33:50.942Z,1.30
2022-10-19T08:38:55.110Z,1.25
2022-10-19T08:44:11.277Z,1.58
2022-10-19T08:49:19.941Z,1.17
2022-10-19T08:54:25.266Z,1.20
2022-10-19T08:59:37.703Z,1.23
2022-10-19T09:04:43.747Z,1.33
2022-10-19T09:09:52.139Z,1.10
2022-10-19T09:20:14.239Z,1.20
2022-10-19T09:25:21.517Z,1.50
2022-10-19T09:30:25.270Z,1.40
2022-10-19T09:35:35.178Z,1.25
2022-10-19T09:40:39.423Z,1.10
2022-10-19T09:45:49.771Z,1.67
2022-10-19T09:50:56.718Z,1.00
2022-10-19T09:56:04.658Z,1.23
2022-10-19T10:01:07.459Z,1.50
2022-10-19T10:06:15.349Z,1.70
2022-10-19T10:11:28.281Z,1.40
2022-10-19T10:16:33.691Z,1.17
2022-10-19T10:21:48.173Z,1.45
2022-10-19T10:26:54.966Z,1.65
2022-10-19T10:32:07.310Z,1.48
2022-10-19T10:37:24.406Z,1.70
2022-10-19T10:42:32.177Z,1.30
2022-10-19T10:47:39.830Z,1.40
2022-10-19T10:52:57.995Z,1.30
2022-10-19T10:58:16.162Z,1.58
2022-10-19T11:03:25.672Z,1.42
2022-10-19T11:08:33.158Z,1.67
2022-10-19T11:13:44.823Z,2.53
2022-10-19T11:18:51.906Z,1.40
2022-10-19T11:24:08.984Z,1.60
2022-10-19T11:29:28.852Z,1.77
2022-10-19T11:34:53.166Z,1.38
2022-10-19T11:40:11.132Z,1.50
2022-10-19T11:45:25.142Z,2.30
2022-10-19T11:50:37.472Z,1.33
2022-10-19T11:55:47.930Z,1.83
2022-10-19T12:01:00.098Z,2.20
2022-10-19T12:06:12.755Z,1.40
2022-10-19T12:11:32.246Z,1.48
2022-10-19T12:16:41.984Z,1.40
2022-10-19T12:21:46.736Z,1.40
2022-10-19T12:26:51.645Z,1.40
2022-10-19T12:31:58.429Z,1.27
2022-10-19T12:37:08.342Z,1.60
2022-10-19T12:42:21.157Z,0.85
2022-10-19T12:47:26.767Z,1.05
2022-10-19T12:52:43.106Z,1.13
2022-10-19T12:57:50.295Z,1.38
2022-10-19T13:03:01.885Z,1.33
2022-10-19T13:08:10.611Z,1.10
2022-10-19T13:13:57.696Z,1.00
2022-10-19T13:19:18.221Z,0.82
2022-10-19T13:24:29.145Z,1.10
2022-10-19T13:29:42.868Z,0.90
2022-10-19T13:34:47.948Z,0.95
2022-10-19T13:39:51.142Z,1.23
2022-10-19T13:44:54.470Z,1.17
2022-10-19T13:50:35.878Z,1.25
2022-10-19T13:55:55.450Z,1.63
2022-10-19T14:01:23.779Z,1.52
2022-10-19T14:06:34.539Z,1.55
2022-10-19T14:11:40.039Z,1.65
2022-10-19T14:16:48.575Z,1.27
2022-10-19T14:21:52.665Z,1.08
2022-10-19T14:26:55.793Z,1.15
2022-10-19T14:31:59.982Z,0.98
2022-10-19T14:37:04.266Z,1.60
2022-10-19T14:42:11.340Z,0.80
2022-10-19T14:47:22.737Z,1.00
2022-10-19T14:52:32.675Z,1.70
2022-10-19T14:57:40.039Z,1.00
2022-10-19T15:02:46.387Z,1.10
2022-10-19T15:07:51.316Z,0.88
2022-10-19T15:13:02.373Z,1.25
2022-10-19T15:18:07.054Z,0.80
2022-10-19T15:23:33.305Z,0.70
2022-10-19T15:28:41.441Z,0.90
2022-10-19T15:33:47.767Z,1.23
2022-10-19T15:39:17.620Z,2.55
2022-10-19T15:44:34.618Z,1.63
2022-10-19T15:49:58.277Z,2.90
2022-10-19T15:55:02.941Z,1.90
2022-10-19T16:00:13.865Z,2.30
2022-10-19T16:05:16.820Z,1.35
2022-10-19T16:10:23.002Z,1.25
2022-10-19T16:15:26.605Z,1.70
2022-10-19T16:20:30.976Z,1.48
2022-10-19T16:25:35.324Z,1.33
2022-10-19T16:30:38.240Z,1.20
2022-10-19T16:35:41.167Z,1.80
2022-10-19T16:40:45.469Z,1.75
2022-10-19T16:45:48.405Z,1.95
2022-10-19T16:51:34.054Z,2.42
2022-10-19T16:56:44.545Z,2.10
2022-10-19T17:01:48.090Z,3.22
2022-10-19T17:06:53.468Z,5.00
2022-10-19T17:11:58.117Z,5.85
2022-10-19T17:17:00.950Z,6.30
2022-10-19T17:22:05.203Z,6.68
2022-10-19T17:27:09.619Z,3.88
2022-10-19T17:32:15.037Z,4.40
2022-10-19T17:37:17.982Z,6.93
2022-10-19T17:42:23.867Z,6.88
2022-10-19T17:47:30.486Z,4.55
2022-10-19T17:52:33.890Z,6.25
2022-10-19T17:57:38.180Z,4.47
2022-10-19T18:02:45.641Z,5.40
2022-10-19T18:07:51.487Z,3.60
2022-10-19T18:12:56.258Z,2.03
2022-10-19T18:18:05.524Z,2.70
2022-10-19T18:23:08.463Z,4.97
2022-10-19T18:28:13.281Z,2.95
2022-10-19T18:33:23.645Z,2.47
2022-10-19T18:38:29.607Z,3.20
2022-10-19T18:43:39.804Z,3.35
2022-10-19T18:48:42.880Z,4.20
2022-10-19T18:53:53.000Z,3.38
2022-10-19T18:58:58.039Z,1.75
2022-10-19T19:04:08.252Z,2.58
2022-10-19T19:09:14.903Z,2.55
2022-10-19T19:14:22.088Z,2.00
2022-10-19T19:19:27.664Z,1.60
2022-10-19T19:24:56.837Z,1.48
2022-10-19T19:30:04.119Z,1.75
2022-10-19T19:35:50.536Z,1.80
2022-10-19T19:40:58.668Z,1.70
2022-10-19T19:46:08.135Z,2.72
2022-10-19T19:51:14.912Z,1.67
2022-10-19T19:56:18.635Z,1.40
2022-10-19T20:01:32.449Z,1.75
2022-10-19T20:06:37.015Z,2.22
2022-10-19T20:11:42.688Z,2.15
2022-10-19T20:16:47.318Z,2.60
2022-10-19T20:21:50.581Z,1.63
2022-10-19T20:26:54.543Z,2.10
2022-10-19T20:31:58.821Z,1.52
2022-10-19T20:37:01.904Z,1.23
2022-10-19T20:42:05.139Z,1.50
2022-10-19T20:47:09.292Z,1.23
2022-10-19T20:52:12.330Z,1.20
2022-10-19T20:57:15.566Z,1.02
2022-10-19T21:02:19.809Z,1.20
2022-10-19T21:07:22.608Z,1.27
2022-10-19T21:12:25.424Z,1.25
2022-10-19T21:22:38.622Z,1.27
2022-10-19T21:27:41.734Z,1.10
2022-10-19T21:32:48.457Z,1.20
2022-10-19T21:37:51.229Z,1.30
2022-10-19T21:42:54.041Z,1.45
2022-10-19T21:47:58.141Z,1.40
2022-10-19T21:53:00.981Z,1.58
2022-10-19T21:58:04.673Z,1.77
2022-10-19T22:03:09.294Z,1.50
2022-10-19T22:08:12.083Z,1.40
2022-10-19T22:13:14.850Z,1.30
2022-10-19T22:18:18.984Z,1.50
2022-10-19T22:23:21.731Z,1.40
2022-10-19T22:28:24.501Z,1.50
2022-10-19T22:33:28.645Z,1.60
2022-10-19T22:38:31.388Z,1.70
2022-10-19T22:43:34.258Z,1.70
2022-10-19T22:48:38.390Z,1.60
2022-10-19T22:53:41.406Z,1.70
2022-10-19T22:58:44.200Z,2.72
2022-10-19T23:03:48.331Z,1.40
2022-10-19T23:08:51.162Z,1.50
2022-10-19T23:13:53.972Z,1.45
2022-10-19T23:18:58.118Z,1.80
2022-10-19T23:24:01.200Z,1.55
2022-10-19T23:29:04.241Z,1.70
2022-10-19T23:34:08.348Z,1.80
2022-10-19T23:39:11.100Z,1.65
2022-10-19T23:44:13.994Z,1.73
2022-10-19T23:49:18.135Z,1.50
2022-10-19T23:54:20.919Z,1.50
2022-10-19T23:59:23.956Z,1.65
